Time;durP1;ratioP1;P1;durP2;ratioP2;P2;SDS_P1;SDS_P2;PMS_P1;PMS_P2;Temp;Humidity;BMP_temperature;BMP_pressure;BME280_temperature;BME280_humidity;BME280_pressure;Samples;Min_cycle;Max_cycle;Signal;HPM_P1;HPM_P2
2021/05/30 00:02:02;;;;;;;;;;;11.30;99.90;;;;;;10354216;28;19944;-51
2021/05/30 00:07:04;;;;;;;;;;;11.30;99.90;;;;;;10359947;28;19928;-51
2021/05/30 00:12:08;;;;;;;;;;;11.20;99.90;;;;;;10358499;28;19917;-52
2021/05/30 00:17:08;;;;;;;;;;;11.10;99.90;;;;;;10350344;28;19925;-52
2021/05/30 00:22:09;;;;;;;;;;;11.00;99.90;;;;;;10359518;28;19925;-51
2021/05/30 00:27:10;;;;;;;;;;;10.90;99.90;;;;;;10357335;28;19925;-51
2021/05/30 00:32:10;;;;;;;;;;;10.90;99.90;;;;;;10363439;28;19922;-51
2021/05/30 00:37:11;;;;;;;;;;;10.90;99.90;;;;;;10363019;28;19925;-51
2021/05/30 00:42:12;;;;;;;;;;;10.90;99.90;;;;;;10365694;28;19921;-51
2021/05/30 00:47:12;;;;;;;;;;;10.90;99.90;;;;;;10366147;28;19925;-52
2021/05/30 00:52:13;;;;;;;;;;;10.90;99.90;;;;;;10361975;28;20408;-52
2021/05/30 00:57:14;;;;;;;;;;;10.90;99.90;;;;;;10363220;28;20010;-51
2021/05/30 01:02:15;;;;;;;;;;;11.00;99.90;;;;;;10363241;28;20383;-52
2021/05/30 01:07:17;;;;;;;;;;;10.80;99.90;;;;;;10367328;28;20323;-51
2021/05/30 01:12:19;;;;;;;;;;;10.80;99.90;;;;;;10362166;28;20466;-51
2021/05/30 01:17:19;;;;;;;;;;;10.80;99.90;;;;;;10357593;28;20285;-52
2021/05/30 01:22:20;;;;;;;;;;;10.70;99.90;;;;;;10365977;28;20392;-52
2021/05/30 01:27:20;;;;;;;;;;;10.80;99.90;;;;;;10364067;28;19925;-52
2021/05/30 01:32:21;;;;;;;;;;;10.60;99.90;;;;;;10367899;28;19921;-51
2021/05/30 01:37:21;;;;;;;;;;;10.70;99.90;;;;;;10358872;28;20617;-52
2021/05/30 01:42:22;;;;;;;;;;;10.60;99.90;;;;;;10360915;28;19940;-52
2021/05/30 01:47:23;;;;;;;;;;;10.70;99.90;;;;;;10352234;28;20373;-52
2021/05/30 01:52:23;;;;;;;;;;;10.50;99.90;;;;;;10357195;28;20007;-51
2021/05/30 01:57:24;;;;;;;;;;;10.50;99.90;;;;;;10361471;28;20255;-52
2021/05/30 02:02:25;;;;;;;;;;;10.50;99.90;;;;;;10363791;28;19917;-51
2021/05/30 02:07:26;;;;;;;;;;;10.50;99.90;;;;;;10356579;28;19921;-52
2021/05/30 02:12:27;;;;;;;;;;;10.40;99.90;;;;;;10367746;28;19939;-51
2021/05/30 02:17:28;;;;;;;;;;;10.40;99.90;;;;;;10365833;28;20561;-51
2021/05/30 02:22:31;;;;;;;;;;;10.40;99.90;;;;;;10363191;28;20353;-52
2021/05/30 02:27:31;;;;;;;;;;;10.40;99.90;;;;;;10362264;28;20684;-52
2021/05/30 02:37:35;;;;;;;;;;;10.40;99.90;;;;;;10288308;28;20013;-51
2021/05/30 02:42:36;;;;;;;;;;;10.50;99.90;;;;;;10287448;28;19922;-52
2021/05/30 02:47:36;;;;;;;;;;;10.40;99.90;;;;;;10282604;28;19929;-52
2021/05/30 02:52:37;;;;;;;;;;;10.40;99.90;;;;;;10283745;28;19922;-51
2021/05/30 02:57:37;;;;;;;;;;;10.30;99.90;;;;;;10288591;28;19976;-51
2021/05/30 03:02:38;;;;;;;;;;;10.40;99.90;;;;;;10286007;28;19922;-51
2021/05/30 03:07:39;;;;;;;;;;;10.40;99.90;;;;;;10293862;28;19976;-52
2021/05/30 03:12:39;;;;;;;;;;;10.40;99.90;;;;;;10292114;28;19976;-52
2021/05/30 03:17:40;;;;;;;;;;;10.40;99.90;;;;;;10279848;28;19922;-52
2021/05/30 03:22:40;;;;;;;;;;;10.40;99.90;;;;;;10279501;28;19933;-52
2021/05/30 03:27:41;;;;;;;;;;;10.30;99.90;;;;;;10281255;28;20352;-52
2021/05/30 03:32:42;;;;;;;;;;;10.30;99.90;;;;;;10277747;28;19926;-51
2021/05/30 03:37:43;;;;;;;;;;;10.30;99.90;;;;;;10278139;28;19937;-51
2021/05/30 03:42:48;;;;;;;;;;;10.20;99.90;;;;;;10280188;28;19983;-51
2021/05/30 03:47:49;;;;;;;;;;;10.30;99.90;;;;;;10276614;28;20429;-51
2021/05/30 03:52:50;;;;;;;;;;;10.30;99.90;;;;;;10278645;28;20320;-52
2021/05/30 03:57:50;;;;;;;;;;;10.20;99.90;;;;;;10279175;28;19922;-51
2021/05/30 04:02:51;;;;;;;;;;;10.10;99.90;;;;;;10278067;28;20333;-51
2021/05/30 04:07:52;;;;;;;;;;;10.10;99.90;;;;;;10277982;28;19922;-51
2021/05/30 04:12:53;;;;;;;;;;;10.10;99.90;;;;;;10291628;28;19918;-51
2021/05/30 04:17:53;;;;;;;;;;;10.10;99.90;;;;;;10288636;28;20364;-51
2021/05/30 04:22:54;;;;;;;;;;;10.10;99.90;;;;;;10293588;28;19926;-52
2021/05/30 04:27:55;;;;;;;;;;;10.00;99.90;;;;;;10294312;28;19926;-52
2021/05/30 04:32:55;;;;;;;;;;;10.00;99.90;;;;;;10288551;28;19941;-52
2021/05/30 04:37:56;;;;;;;;;;;10.00;99.90;;;;;;10288225;28;20309;-52
2021/05/30 04:42:56;;;;;;;;;;;9.90;99.90;;;;;;10290037;28;19929;-52
2021/05/30 04:47:57;;;;;;;;;;;9.90;99.90;;;;;;10287879;28;19922;-52
2021/05/30 04:52:58;;;;;;;;;;;10.10;99.90;;;;;;10287349;28;19945;-52
2021/05/30 04:57:59;;;;;;;;;;;10.20;99.90;;;;;;10288555;28;19932;-52
2021/05/30 05:03:00;;;;;;;;;;;10.40;99.90;;;;;;10287846;28;19981;-52
2021/05/30 05:08:00;;;;;;;;;;;10.40;99.90;;;;;;10287417;28;20277;-52
2021/05/30 05:13:01;;;;;;;;;;;10.40;99.90;;;;;;10285964;28;19918;-52
2021/05/30 05:18:29;;;;;;;;;;;10.70;99.90;;;;;;10275954;28;19926;-52
2021/05/30 05:23:29;;;;;;;;;;;10.70;99.90;;;;;;10290141;28;19918;-52
2021/05/30 05:28:31;;;;;;;;;;;10.90;99.90;;;;;;10282835;28;19918;-52
2021/05/30 05:33:31;;;;;;;;;;;11.00;99.90;;;;;;10288397;28;19925;-52
2021/05/30 05:38:32;;;;;;;;;;;11.20;99.90;;;;;;10288931;28;19926;-52
2021/05/30 05:43:32;;;;;;;;;;;11.40;99.90;;;;;;10284664;28;20558;-52
2021/05/30 05:48:34;;;;;;;;;;;11.60;99.90;;;;;;10283592;28;19961;-52
2021/05/30 05:53:35;;;;;;;;;;;11.70;99.90;;;;;;10276742;28;19945;-52
2021/05/30 05:58:35;;;;;;;;;;;11.80;99.90;;;;;;10277309;28;19925;-52
2021/05/30 06:03:36;;;;;;;;;;;12.00;99.90;;;;;;10283223;28;20000;-52
2021/05/30 06:08:37;;;;;;;;;;;12.20;99.90;;;;;;10281771;28;20020;-52
2021/05/30 06:13:38;;;;;;;;;;;12.30;99.90;;;;;;10279803;28;19918;-52
2021/05/30 06:18:38;;;;;;;;;;;12.30;99.90;;;;;;10281017;28;19919;-52
2021/05/30 06:23:39;;;;;;;;;;;12.50;99.90;;;;;;10277985;28;20013;-52
2021/05/30 06:28:39;;;;;;;;;;;12.70;99.90;;;;;;10280469;28;19965;-52
2021/05/30 06:33:40;;;;;;;;;;;12.70;99.90;;;;;;10274449;28;19934;-52
2021/05/30 06:38:43;;;;;;;;;;;12.80;99.90;;;;;;10279910;28;22014;-52
2021/05/30 06:43:44;;;;;;;;;;;12.80;99.90;;;;;;10280884;28;19930;-51
2021/05/30 06:48:44;;;;;;;;;;;12.80;99.90;;;;;;10277037;28;19933;-52
2021/05/30 06:53:46;;;;;;;;;;;12.90;99.90;;;;;;10252082;28;20463;-52
2021/05/30 06:58:47;;;;;;;;;;;12.90;99.90;;;;;;10281454;28;19950;-51
2021/05/30 07:03:48;;;;;;;;;;;13.00;99.90;;;;;;10263897;28;19937;-52
2021/05/30 07:08:49;;;;;;;;;;;13.10;99.90;;;;;;10273246;28;19918;-52
2021/05/30 07:13:50;;;;;;;;;;;13.20;99.90;;;;;;10273391;28;19925;-51
2021/05/30 07:18:51;;;;;;;;;;;13.30;99.90;;;;;;10271905;28;19922;-51
2021/05/30 07:23:51;;;;;;;;;;;13.40;99.90;;;;;;10274887;28;19926;-51
2021/05/30 07:28:53;;;;;;;;;;;13.50;99.90;;;;;;10276132;28;19922;-51
2021/05/30 07:33:53;;;;;;;;;;;13.40;99.90;;;;;;10278363;28;19926;-52
2021/05/30 07:38:55;;;;;;;;;;;13.50;99.90;;;;;;10279894;28;20427;-52
2021/05/30 07:43:55;;;;;;;;;;;13.50;99.90;;;;;;10280090;28;20385;-52
2021/05/30 07:48:56;;;;;;;;;;;13.70;99.90;;;;;;10281487;28;20013;-52
2021/05/30 07:53:58;;;;;;;;;;;13.70;99.90;;;;;;10281200;28;19954;-52
2021/05/30 07:58:59;;;;;;;;;;;13.90;99.90;;;;;;10285899;28;20397;-52
2021/05/30 08:03:59;;;;;;;;;;;14.00;99.90;;;;;;10284967;28;19985;-51
2021/05/30 08:09:00;;;;;;;;;;;14.10;99.90;;;;;;10284247;28;20352;-52
2021/05/30 08:14:01;;;;;;;;;;;14.40;99.90;;;;;;10287711;28;19918;-52
2021/05/30 08:19:01;;;;;;;;;;;14.30;99.90;;;;;;10279702;28;20011;-52
2021/05/30 08:24:02;;;;;;;;;;;14.50;99.90;;;;;;10281050;28;20374;-51
2021/05/30 08:29:03;;;;;;;;;;;14.60;99.90;;;;;;10277779;28;20376;-52
2021/05/30 08:34:03;;;;;;;;;;;14.70;99.90;;;;;;10266053;28;20206;-52
2021/05/30 08:39:04;;;;;;;;;;;15.00;99.90;;;;;;10281200;28;19957;-51
2021/05/30 08:44:05;;;;;;;;;;;15.30;99.90;;;;;;10275704;28;19933;-51
2021/05/30 08:49:06;;;;;;;;;;;15.30;99.90;;;;;;10281602;28;20395;-49
2021/05/30 08:54:24;;;;;;;;;;;15.50;99.90;;;;;;10281767;28;20420;-52
2021/05/30 08:59:30;;;;;;;;;;;15.80;99.90;;;;;;10282429;28;20271;-52
2021/05/30 09:04:34;;;;;;;;;;;16.10;99.90;;;;;;10281834;28;20131;-49
2021/05/30 09:09:36;;;;;;;;;;;16.30;99.90;;;;;;10267418;28;20526;-49
2021/05/30 09:14:44;;;;;;;;;;;16.30;99.90;;;;;;10295510;28;19925;-49
2021/05/30 09:19:47;;;;;;;;;;;16.50;99.90;;;;;;10234184;28;20251;-49
2021/05/30 09:24:47;;;;;;;;;;;16.80;99.90;;;;;;10275294;28;19922;-49
2021/05/30 09:30:07;;;;;;;;;;;17.20;99.90;;;;;;10283650;28;20372;-49
2021/05/30 09:35:08;;;;;;;;;;;17.40;99.90;;;;;;10281546;28;19930;-49
2021/05/30 09:40:08;;;;;;;;;;;17.20;99.90;;;;;;10279619;28;20440;-49
2021/05/30 09:45:10;;;;;;;;;;;17.40;99.90;;;;;;10285102;28;20008;-49
2021/05/30 09:50:12;;;;;;;;;;;17.50;99.90;;;;;;10288082;28;19918;-50
2021/05/30 09:55:16;;;;;;;;;;;17.70;99.90;;;;;;10287363;28;19972;-50
2021/05/30 10:00:21;;;;;;;;;;;17.90;99.90;;;;;;10281640;28;20245;-49
2021/05/30 10:05:22;;;;;;;;;;;18.00;99.90;;;;;;10280140;28;20021;-49
2021/05/30 10:10:23;;;;;;;;;;;18.30;99.90;;;;;;10279949;28;19926;-49
2021/05/30 10:15:23;;;;;;;;;;;18.00;99.90;;;;;;10278966;28;19980;-49
2021/05/30 10:20:24;;;;;;;;;;;17.80;99.90;;;;;;10276553;28;19926;-49
2021/05/30 10:25:30;;;;;;;;;;;17.80;99.90;;;;;;10279458;28;20436;-49
2021/05/30 10:30:31;;;;;;;;;;;17.90;99.90;;;;;;10276817;28;19918;-49
2021/05/30 10:35:31;;;;;;;;;;;18.70;99.90;;;;;;10279017;28;19983;-49
2021/05/30 10:40:34;;;;;;;;;;;19.30;99.90;;;;;;10277022;28;19928;-49
2021/05/30 10:45:35;;;;;;;;;;;19.60;99.90;;;;;;10284428;28;19925;-49
2021/05/30 10:50:36;;;;;;;;;;;19.60;99.90;;;;;;10285586;28;19922;-49
2021/05/30 10:55:37;;;;;;;;;;;19.80;99.90;;;;;;10280179;28;19917;-49
2021/05/30 11:00:37;;;;;;;;;;;20.10;99.90;;;;;;10279971;28;19925;-49
2021/05/30 11:05:51;;;;;;;;;;;19.90;99.90;;;;;;10276637;28;20016;-49
2021/05/30 11:10:52;;;;;;;;;;;20.10;99.90;;;;;;10277718;28;20117;-49
2021/05/30 11:16:05;;;;;;;;;;;19.90;99.90;;;;;;10276706;28;20008;-50
2021/05/30 11:21:06;;;;;;;;;;;19.60;99.90;;;;;;10271728;28;19926;-50
2021/05/30 11:26:08;;;;;;;;;;;19.60;99.90;;;;;;10274852;28;19922;-50
2021/05/30 11:31:09;;;;;;;;;;;20.30;99.90;;;;;;10286029;28;20254;-50
2021/05/30 11:36:14;;;;;;;;;;;20.30;99.90;;;;;;10279150;28;19929;-50
2021/05/30 11:41:21;;;;;;;;;;;20.70;99.90;;;;;;10283684;28;20411;-50
2021/05/30 11:46:22;;;;;;;;;;;20.90;99.90;;;;;;10281670;28;20819;-50
2021/05/30 11:51:22;;;;;;;;;;;20.70;99.90;;;;;;10258869;28;20071;-50
2021/05/30 11:56:23;;;;;;;;;;;21.00;99.90;;;;;;10267306;28;20065;-50
2021/05/30 12:01:23;;;;;;;;;;;21.10;99.90;;;;;;10209100;28;20021;-50
2021/05/30 12:06:24;;;;;;;;;;;21.10;99.90;;;;;;10275472;28;19917;-50
2021/05/30 12:11:31;;;;;;;;;;;21.20;99.90;;;;;;10132016;28;20626;-50
2021/05/30 12:16:32;;;;;;;;;;;21.30;99.90;;;;;;10064259;28;20325;-50
2021/05/30 12:21:41;;;;;;;;;;;20.70;99.90;;;;;;10096578;28;19930;-50
2021/05/30 12:26:43;;;;;;;;;;;20.50;99.90;;;;;;10083090;28;19917;-50
2021/05/30 12:31:46;;;;;;;;;;;20.50;99.90;;;;;;10051566;28;20392;-50
2021/05/30 12:36:47;;;;;;;;;;;20.90;99.90;;;;;;10052623;28;19929;-49
2021/05/30 12:41:49;;;;;;;;;;;20.70;99.90;;;;;;10065051;28;20609;-49
2021/05/30 12:47:00;;;;;;;;;;;20.30;99.90;;;;;;10173464;28;20392;-50
2021/05/30 12:52:05;;;;;;;;;;;20.80;99.90;;;;;;10272125;28;20279;-50
2021/05/30 12:57:06;;;;;;;;;;;20.70;99.90;;;;;;10275746;28;20341;-50
2021/05/30 13:02:11;;;;;;;;;;;21.10;99.90;;;;;;10278894;28;20456;-50
2021/05/30 13:07:12;;;;;;;;;;;20.90;99.90;;;;;;10281976;28;20372;-50
2021/05/30 13:12:22;;;;;;;;;;;20.80;99.90;;;;;;10287630;28;19925;-50
2021/05/30 13:17:23;;;;;;;;;;;20.50;99.90;;;;;;10081621;28;20914;-50
2021/05/30 13:22:24;;;;;;;;;;;20.70;99.90;;;;;;10055934;28;20670;-50
2021/05/30 13:27:25;;;;;;;;;;;21.10;99.90;;;;;;10050241;28;19926;-49
2021/05/30 13:32:26;;;;;;;;;;;20.90;99.90;;;;;;10053289;28;20322;-50
2021/05/30 13:37:28;;;;;;;;;;;20.70;99.90;;;;;;10048004;28;19957;-50
2021/05/30 13:42:29;;;;;;;;;;;20.30;99.90;;;;;;10058194;28;20741;-50
2021/05/30 13:47:29;;;;;;;;;;;20.20;99.90;;;;;;10051611;28;20520;-50
2021/05/30 13:52:30;;;;;;;;;;;20.20;99.90;;;;;;10051909;28;20415;-50
2021/05/30 13:57:30;;;;;;;;;;;20.40;99.90;;;;;;10220980;28;20216;-49
2021/05/30 14:02:31;;;;;;;;;;;20.10;99.90;;;;;;10276135;28;20071;-50
2021/05/30 14:07:31;;;;;;;;;;;20.00;99.90;;;;;;10277447;28;19918;-50
2021/05/30 14:12:32;;;;;;;;;;;20.20;99.90;;;;;;10282463;28;20293;-50
2021/05/30 14:17:35;;;;;;;;;;;20.30;99.90;;;;;;10284711;28;19918;-50
2021/05/30 14:22:36;;;;;;;;;;;20.20;99.90;;;;;;10292425;28;20328;-50
2021/05/30 14:27:37;;;;;;;;;;;20.10;99.90;;;;;;10291152;28;19918;-50
2021/05/30 14:32:38;;;;;;;;;;;20.20;99.90;;;;;;10278781;28;19929;-50
2021/05/30 14:37:39;;;;;;;;;;;20.10;99.90;;;;;;10083072;28;19930;-50
2021/05/30 14:42:39;;;;;;;;;;;19.90;99.90;;;;;;10027731;28;20440;-49
2021/05/30 14:47:40;;;;;;;;;;;19.80;99.90;;;;;;10211770;28;19929;-50
2021/05/30 14:52:42;;;;;;;;;;;20.10;99.90;;;;;;10270695;28;20243;-48
2021/05/30 14:57:43;;;;;;;;;;;20.10;99.90;;;;;;10214152;28;19926;-48
2021/05/30 15:02:44;;;;;;;;;;;20.00;99.90;;;;;;10275763;28;19922;-48
2021/05/30 15:07:44;;;;;;;;;;;20.20;99.90;;;;;;10298116;28;19980;-48
2021/05/30 15:12:45;;;;;;;;;;;19.90;99.90;;;;;;10282460;28;19928;-49
2021/05/30 15:17:46;;;;;;;;;;;20.00;99.90;;;;;;10273780;28;19934;-48
2021/05/30 15:22:49;;;;;;;;;;;20.10;99.90;;;;;;10276083;28;20016;-48
2021/05/30 15:27:50;;;;;;;;;;;19.90;99.90;;;;;;10271041;28;19922;-48
2021/05/30 15:32:50;;;;;;;;;;;19.70;99.90;;;;;;10280694;28;19922;-48
2021/05/30 15:37:51;;;;;;;;;;;20.00;99.90;;;;;;10287251;28;19930;-48
2021/05/30 15:42:52;;;;;;;;;;;20.20;99.90;;;;;;10271442;28;20054;-48
2021/05/30 15:47:52;;;;;;;;;;;20.10;99.90;;;;;;10291352;28;20260;-48
2021/05/30 15:52:54;;;;;;;;;;;20.00;99.90;;;;;;10286941;28;20126;-48
2021/05/30 15:57:55;;;;;;;;;;;20.00;99.90;;;;;;10276225;28;20423;-48
2021/05/30 16:02:55;;;;;;;;;;;20.10;99.90;;;;;;10289782;28;19933;-48
2021/05/30 16:07:57;;;;;;;;;;;20.30;99.90;;;;;;10285608;28;20251;-48
2021/05/30 16:12:57;;;;;;;;;;;20.30;99.90;;;;;;10294711;28;19929;-48
2021/05/30 16:17:58;;;;;;;;;;;20.10;99.90;;;;;;10279630;28;20273;-48
2021/05/30 16:22:58;;;;;;;;;;;20.10;99.90;;;;;;10291692;28;19921;-48
2021/05/30 16:27:59;;;;;;;;;;;19.90;99.90;;;;;;10283260;28;19929;-48
2021/05/30 16:33:00;;;;;;;;;;;19.70;99.90;;;;;;10291296;28;20325;-48
2021/05/30 16:38:02;;;;;;;;;;;19.60;99.90;;;;;;10295281;28;20408;-48
2021/05/30 16:43:02;;;;;;;;;;;19.60;99.90;;;;;;10290997;28;20021;-48
2021/05/30 16:48:03;;;;;;;;;;;19.50;99.90;;;;;;10288759;28;19985;-48
2021/05/30 16:53:04;;;;;;;;;;;19.30;99.90;;;;;;10299422;28;19920;-48
2021/05/30 16:58:04;;;;;;;;;;;19.20;99.90;;;;;;10291795;28;20016;-48
2021/05/30 17:03:05;;;;;;;;;;;19.00;99.90;;;;;;10280519;28;19938;-48
2021/05/30 17:08:06;;;;;;;;;;;18.80;99.90;;;;;;10284540;28;19926;-48
2021/05/30 17:13:06;;;;;;;;;;;19.00;99.90;;;;;;10276128;28;19918;-48
2021/05/30 17:18:07;;;;;;;;;;;19.10;99.90;;;;;;10278086;28;19922;-48
2021/05/30 17:23:08;;;;;;;;;;;18.90;99.90;;;;;;10293151;28;19926;-48
2021/05/30 17:28:08;;;;;;;;;;;18.80;99.90;;;;;;10288552;28;19926;-48
2021/05/30 17:33:09;;;;;;;;;;;18.80;99.90;;;;;;10239326;28;20325;-48
2021/05/30 17:38:11;;;;;;;;;;;18.60;99.90;;;;;;10264196;28;19933;-48
2021/05/30 17:43:11;;;;;;;;;;;18.50;99.90;;;;;;10281399;28;19929;-48
2021/05/30 17:48:14;;;;;;;;;;;18.40;99.90;;;;;;10215175;28;19926;-48
2021/05/30 17:53:15;;;;;;;;;;;18.40;99.90;;;;;;10085089;28;19924;-48
2021/05/30 17:58:15;;;;;;;;;;;18.40;99.90;;;;;;10054211;28;20384;-48
2021/05/30 18:03:16;;;;;;;;;;;18.30;99.90;;;;;;10056846;28;20320;-48
2021/05/30 18:08:17;;;;;;;;;;;18.30;99.90;;;;;;10071782;28;20470;-48
2021/05/30 18:13:19;;;;;;;;;;;18.20;99.90;;;;;;10090685;28;20036;-48
2021/05/30 18:18:20;;;;;;;;;;;18.30;99.90;;;;;;10089693;28;19969;-48
2021/05/30 18:23:22;;;;;;;;;;;18.30;99.90;;;;;;10274386;28;19926;-48
2021/05/30 18:28:23;;;;;;;;;;;18.30;99.90;;;;;;10286274;28;19922;-48
2021/05/30 18:33:24;;;;;;;;;;;18.10;99.90;;;;;;10288606;28;19918;-49
2021/05/30 18:38:25;;;;;;;;;;;18.00;99.90;;;;;;10287982;28;19952;-48
2021/05/30 18:43:26;;;;;;;;;;;18.00;99.90;;;;;;10294686;28;19968;-49
2021/05/30 18:48:26;;;;;;;;;;;18.20;99.90;;;;;;10287657;28;19961;-48
2021/05/30 18:53:27;;;;;;;;;;;18.20;99.90;;;;;;10269767;28;19972;-49
2021/05/30 18:58:28;;;;;;;;;;;18.10;99.90;;;;;;10269629;28;19930;-48
2021/05/30 19:03:29;;;;;;;;;;;18.00;99.90;;;;;;10277100;28;19926;-49
2021/05/30 19:08:29;;;;;;;;;;;17.90;99.90;;;;;;10277190;28;19936;-48
2021/05/30 19:13:30;;;;;;;;;;;17.80;99.90;;;;;;10267964;28;19929;-48
2021/05/30 19:18:31;;;;;;;;;;;17.80;99.90;;;;;;10262496;28;19926;-49
2021/05/30 19:23:32;;;;;;;;;;;17.80;99.90;;;;;;10273729;28;20143;-49
2021/05/30 19:28:33;;;;;;;;;;;17.70;99.90;;;;;;10274252;28;19949;-49
2021/05/30 19:33:34;;;;;;;;;;;17.60;99.90;;;;;;10274857;28;19926;-49
2021/05/30 19:38:35;;;;;;;;;;;17.50;99.90;;;;;;10268702;28;19944;-49
2021/05/30 19:43:36;;;;;;;;;;;17.40;99.90;;;;;;10273980;28;19930;-48
2021/05/30 19:48:37;;;;;;;;;;;17.50;99.90;;;;;;10273323;28;19919;-49
2021/05/30 19:53:41;;;;;;;;;;;17.40;99.90;;;;;;10276304;28;19922;-49
2021/05/30 19:58:41;;;;;;;;;;;17.30;99.90;;;;;;10275110;28;20510;-49
2021/05/30 20:03:42;;;;;;;;;;;17.20;99.90;;;;;;10271308;28;19960;-49
2021/05/30 20:08:42;;;;;;;;;;;17.10;99.90;;;;;;10272635;28;19949;-49
2021/05/30 20:13:43;;;;;;;;;;;16.90;99.90;;;;;;10276417;28;19918;-49
2021/05/30 20:18:44;;;;;;;;;;;16.80;99.90;;;;;;10272367;28;19945;-49
2021/05/30 20:23:44;;;;;;;;;;;16.80;99.90;;;;;;10273888;28;20038;-49
2021/05/30 20:28:53;;;;;;;;;;;16.70;99.90;;;;;;10271482;28;19954;-49
2021/05/30 20:33:54;;;;;;;;;;;16.60;99.90;;;;;;10270002;28;20255;-49
2021/05/30 20:38:55;;;;;;;;;;;16.50;99.90;;;;;;10270874;28;19934;-49
2021/05/30 20:43:56;;;;;;;;;;;16.60;99.90;;;;;;10272419;28;19976;-49
2021/05/30 20:48:57;;;;;;;;;;;16.50;99.90;;;;;;10209810;28;20720;-49
2021/05/30 20:53:58;;;;;;;;;;;16.40;99.90;;;;;;10284495;28;19964;-49
2021/05/30 20:58:58;;;;;;;;;;;16.40;99.90;;;;;;10283273;28;19921;-49
2021/05/30 21:03:59;;;;;;;;;;;16.20;99.90;;;;;;10286501;28;19928;-49
2021/05/30 21:09:00;;;;;;;;;;;16.00;99.90;;;;;;10282205;28;19918;-49
2021/05/30 21:14:01;;;;;;;;;;;16.10;99.90;;;;;;10278061;28;20404;-49
2021/05/30 21:19:01;;;;;;;;;;;16.00;99.90;;;;;;10279981;28;20028;-49
2021/05/30 21:24:02;;;;;;;;;;;15.90;99.90;;;;;;10278301;28;19981;-49
2021/05/30 21:29:03;;;;;;;;;;;15.90;99.90;;;;;;10282372;28;20004;-49
2021/05/30 21:34:04;;;;;;;;;;;15.80;99.90;;;;;;10275694;28;19917;-48
2021/05/30 21:39:04;;;;;;;;;;;15.70;99.90;;;;;;10277184;28;19936;-49
2021/05/30 21:44:05;;;;;;;;;;;15.70;99.90;;;;;;10277781;28;20025;-48
2021/05/30 21:49:05;;;;;;;;;;;15.70;99.90;;;;;;10282382;28;19918;-49
2021/05/30 21:54:06;;;;;;;;;;;15.70;99.90;;;;;;10281593;28;20027;-48
2021/05/30 21:59:07;;;;;;;;;;;15.60;99.90;;;;;;10281251;28;20054;-49
2021/05/30 22:04:08;;;;;;;;;;;15.40;99.90;;;;;;10259836;28;19949;-49
2021/05/30 22:09:09;;;;;;;;;;;15.20;99.90;;;;;;10279114;28;19928;-49
2021/05/30 22:14:09;;;;;;;;;;;15.10;99.90;;;;;;10278406;28;19941;-49
2021/05/30 22:19:26;;;;;;;;;;;15.00;99.90;;;;;;10278344;28;19928;-49
2021/05/30 22:24:27;;;;;;;;;;;15.00;99.90;;;;;;10278896;28;19930;-49
2021/05/30 22:29:27;;;;;;;;;;;15.00;99.90;;;;;;10280763;28;20294;-49
2021/05/30 22:34:28;;;;;;;;;;;14.90;99.90;;;;;;10272991;28;20061;-49
2021/05/30 22:39:28;;;;;;;;;;;14.80;99.90;;;;;;10277173;28;20294;-49
2021/05/30 22:44:29;;;;;;;;;;;14.70;99.90;;;;;;10274108;28;19926;-49
2021/05/30 22:49:30;;;;;;;;;;;14.60;99.90;;;;;;10279028;28;20390;-49
2021/05/30 22:54:30;;;;;;;;;;;14.50;99.90;;;;;;10275983;28;19985;-49
2021/05/30 22:59:31;;;;;;;;;;;14.50;99.90;;;;;;10277739;28;19914;-51
2021/05/30 23:04:32;;;;;;;;;;;14.50;99.90;;;;;;10269364;28;22053;-51
2021/05/30 23:09:33;;;;;;;;;;;14.40;99.90;;;;;;10273858;28;20373;-51
2021/05/30 23:14:33;;;;;;;;;;;14.30;99.90;;;;;;10273846;28;20269;-51
2021/05/30 23:19:34;;;;;;;;;;;14.30;99.90;;;;;;10210197;28;19926;-51
2021/05/30 23:24:35;;;;;;;;;;;14.20;99.90;;;;;;10259101;28;20020;-48
2021/05/30 23:29:36;;;;;;;;;;;14.10;99.90;;;;;;10272781;28;20381;-48
2021/05/30 23:34:36;;;;;;;;;;;14.00;99.90;;;;;;10274511;28;19984;-48
2021/05/30 23:39:37;;;;;;;;;;;14.00;99.90;;;;;;10278969;28;20367;-48
2021/05/30 23:44:37;;;;;;;;;;;14.00;99.90;;;;;;10272500;28;19930;-49
2021/05/30 23:49:38;;;;;;;;;;;14.00;99.90;;;;;;10282016;28;19928;-50
2021/05/30 23:54:38;;;;;;;;;;;13.90;99.90;;;;;;10274834;28;20300;-50
2021/05/30 23:59:39;;;;;;;;;;;13.90;99.90;;;;;;10271620;28;20181;-50
